Time;durP1;ratioP1;P1;durP2;ratioP2;P2;SDS_P1;SDS_P2;PMS_P1;PMS_P2;Temp;Humidity;BMP_temperature;BMP_pressure;BME280_temperature;BME280_humidity;BME280_pressure;Samples;Min_cycle;Max_cycle;Signal;HPM_P1;HPM_P2
2021/03/22 00:00:20;;;;;;;3.10;1.90;;;-0.70;99.90;;;;;;5009079;28;20218;-62
2021/03/22 00:02:47;;;;;;;4.17;1.87;;;0.50;99.90;;;;;;4990419;28;20527;-61
2021/03/22 00:05:14;;;;;;;2.93;2.10;;;-0.70;99.90;;;;;;5008592;28;20228;-61
2021/03/22 00:07:41;;;;;;;3.73;1.93;;;-0.80;99.90;;;;;;5008276;28;20975;-62
2021/03/22 00:10:08;;;;;;;4.47;2.03;;;-0.80;99.90;;;;;;5008889;28;20218;-62
2021/03/22 00:12:37;;;;;;;2.43;1.57;;;-0.90;99.90;;;;;;5008707;28;20694;-62
2021/03/22 00:15:04;;;;;;;3.33;1.67;;;-0.90;99.90;;;;;;5007022;28;20218;-61
2021/03/22 00:17:31;;;;;;;2.23;1.50;;;-0.90;99.90;;;;;;5008250;28;20648;-61
2021/03/22 00:19:58;;;;;;;4.83;3.10;;;-0.90;99.90;;;;;;5008808;28;20406;-61
2021/03/22 00:22:24;;;;;;;5.60;3.50;;;0.40;99.90;;;;;;5008912;28;20617;-62
2021/03/22 00:24:51;;;;;;;5.90;3.70;;;-0.90;99.90;;;;;;5008422;28;20709;-59
2021/03/22 00:27:17;;;;;;;10.77;5.83;;;-0.80;99.90;;;;;;5007819;28;20452;-61
2021/03/22 00:29:43;;;;;;;4.70;3.70;;;-0.90;99.90;;;;;;5008219;28;20682;-61
2021/03/22 00:32:10;;;;;;;5.00;2.73;;;-1.00;99.90;;;;;;5008293;28;20394;-61
2021/03/22 00:34:36;;;;;;;5.50;2.27;;;-0.80;99.90;;;;;;5008447;28;20501;-61
2021/03/22 00:37:04;;;;;;;4.80;1.73;;;0.40;99.90;;;;;;5008034;28;20230;-61
2021/03/22 00:39:30;;;;;;;3.30;1.47;;;-2.50;99.90;;;;;;5007837;28;20288;-61
2021/03/22 00:41:57;;;;;;;3.87;3.43;;;-0.70;99.90;;;;;;5008496;28;20497;-61
2021/03/22 00:44:24;;;;;;;4.33;3.43;;;0.30;99.90;;;;;;5008312;28;21074;-62
2021/03/22 00:46:51;;;;;;;5.10;2.93;;;-0.70;99.90;;;;;;5008130;28;20481;-61
2021/03/22 00:49:17;;;;;;;5.37;2.27;;;-0.70;99.90;;;;;;5009022;28;20527;-61
2021/03/22 00:51:44;;;;;;;3.60;2.17;;;-0.40;99.90;;;;;;5008685;28;20244;-61
2021/03/22 00:54:12;;;;;;;3.30;1.60;;;-0.60;99.90;;;;;;4990159;28;20214;-62
2021/03/22 00:56:39;;;;;;;2.70;2.07;;;-0.70;99.90;;;;;;5007821;28;20955;-61
2021/03/22 00:59:05;;;;;;;4.93;2.20;;;0.10;99.90;;;;;;5008260;28;21133;-61
2021/03/22 01:01:32;;;;;;;2.70;2.13;;;-0.80;99.90;;;;;;5008019;28;20624;-61
2021/03/22 01:03:58;;;;;;;2.67;1.30;;;-0.80;99.90;;;;;;5008022;28;20772;-61
2021/03/22 01:06:25;;;;;;;2.27;1.83;;;-0.90;99.90;;;;;;5008580;28;20324;-61
2021/03/22 01:08:51;;;;;;;2.90;1.87;;;-0.10;99.90;;;;;;5007968;28;20630;-61
2021/03/22 01:11:20;;;;;;;1.50;1.13;;;-0.80;99.90;;;;;;5008036;28;21056;-62
2021/03/22 01:13:48;;;;;;;4.53;1.50;;;-1.10;99.90;;;;;;5007942;28;20438;-60
2021/03/22 01:16:16;;;;;;;2.83;1.40;;;-1.10;99.90;;;;;;5007531;28;20512;-61
2021/03/22 01:18:45;;;;;;;3.50;1.40;;;-1.00;99.90;;;;;;5008171;28;20772;-61
2021/03/22 01:21:18;;;;;;;2.47;1.40;;;-0.10;99.90;;;;;;5007881;28;20261;-61
2021/03/22 01:23:44;;;;;;;5.50;2.30;;;-0.10;99.90;;;;;;5007899;28;20219;-61
2021/03/22 01:26:12;;;;;;;5.50;1.87;;;-1.10;99.90;;;;;;5007917;28;20233;-61
2021/03/22 01:28:40;;;;;;;5.87;1.87;;;-1.20;99.90;;;;;;5011305;28;20326;-61
2021/03/22 01:31:07;;;;;;;2.93;1.80;;;-1.20;99.90;;;;;;5010946;28;20975;-61
2021/03/22 01:33:36;;;;;;;4.30;1.80;;;-1.20;99.90;;;;;;5010955;28;20491;-61
2021/03/22 01:36:06;;;;;;;7.83;2.03;;;-1.20;99.90;;;;;;5010744;28;20592;-61
2021/03/22 01:38:33;;;;;;;3.63;1.50;;;-1.30;99.90;;;;;;5010769;28;20320;-61
2021/03/22 01:41:11;;;;;;;3.03;1.77;;;-0.40;99.90;;;;;;5011119;28;20323;-61
2021/03/22 01:44:02;;;;;;;5.47;1.43;;;-1.20;99.90;;;;;;4991088;28;20661;-61
2021/03/22 01:46:31;;;;;;;6.00;1.40;;;-0.30;99.90;;;;;;4988671;28;20242;-61
2021/03/22 01:48:58;;;;;;;4.00;1.37;;;-1.30;99.90;;;;;;4991275;28;20592;-61
2021/03/22 01:51:24;;;;;;;2.93;1.43;;;-1.30;99.90;;;;;;4990907;28;20523;-61
2021/03/22 01:53:51;;;;;;;3.17;1.30;;;-1.30;99.90;;;;;;5005481;28;20628;-61
2021/03/22 01:56:29;;;;;;;3.23;1.10;;;-1.30;99.90;;;;;;5010615;28;20487;-61
2021/03/22 01:58:57;;;;;;;6.17;1.80;;;-1.30;99.90;;;;;;5011346;28;20381;-61
2021/03/22 02:01:28;;;;;;;3.30;1.37;;;-0.20;99.90;;;;;;5011140;28;20467;-61
2021/03/22 02:03:54;;;;;;;2.53;1.30;;;-1.20;99.90;;;;;;4991718;28;20222;-61
2021/03/22 02:06:22;;;;;;;6.07;1.87;;;-1.30;99.90;;;;;;5010892;28;20265;-61
2021/03/22 02:08:50;;;;;;;2.70;1.27;;;-1.20;99.90;;;;;;5011051;28;20623;-61
2021/03/22 02:11:18;;;;;;;4.37;1.60;;;-1.20;99.90;;;;;;5010885;28;20668;-61
2021/03/22 02:13:45;;;;;;;3.97;1.30;;;-1.30;99.90;;;;;;5010713;28;20682;-62
2021/03/22 02:16:17;;;;;;;3.57;1.60;;;-1.10;99.90;;;;;;5009625;28;20517;-62
2021/03/22 02:18:56;;;;;;;5.83;1.60;;;-1.20;99.90;;;;;;5011257;28;20206;-61
2021/03/22 02:22:07;;;;;;;8.67;1.70;;;-1.10;99.90;;;;;;5010918;28;20377;-62
2021/03/22 02:24:50;;;;;;;2.77;1.63;;;-1.30;99.90;;;;;;5010588;28;20419;-62
2021/03/22 02:27:44;;;;;;;7.20;2.07;;;-1.10;99.90;;;;;;4991650;28;20218;-61
2021/03/22 02:30:28;;;;;;;4.63;2.30;;;-1.00;99.90;;;;;;5010509;28;20497;-62
2021/03/22 02:33:20;;;;;;;5.00;1.90;;;-0.80;99.90;;;;;;5010862;28;20241;-62
2021/03/22 02:35:54;;;;;;;4.60;1.70;;;-0.90;99.90;;;;;;5010187;28;20494;-61
2021/03/22 02:38:24;;;;;;;7.80;1.87;;;-0.90;99.90;;;;;;5009002;28;20214;-61
2021/03/22 02:40:54;;;;;;;3.53;2.00;;;0.10;99.90;;;;;;5010169;28;20218;-62
2021/03/22 02:43:21;;;;;;;5.17;1.73;;;-0.90;99.90;;;;;;5010155;28;20222;-62
2021/03/22 02:45:48;;;;;;;6.13;2.47;;;-0.80;99.90;;;;;;5009819;28;20218;-61
2021/03/22 02:48:17;;;;;;;7.10;2.20;;;-0.80;99.90;;;;;;5010097;28;20603;-60
2021/03/22 02:50:45;;;;;;;4.80;2.37;;;-0.90;99.90;;;;;;5010269;28;20424;-62
2021/03/22 02:53:29;;;;;;;5.47;2.70;;;-0.80;99.90;;;;;;5010358;28;20206;-62
2021/03/22 02:56:17;;;;;;;10.40;4.93;;;-0.90;99.90;;;;;;5009868;28;20497;-62
2021/03/22 02:58:46;;;;;;;12.53;5.93;;;-0.90;99.90;;;;;;5009294;28;20330;-62
2021/03/22 03:01:19;;;;;;;12.60;5.63;;;-0.80;99.90;;;;;;5009201;28;21029;-62
2021/03/22 03:03:50;;;;;;;10.83;5.00;;;-0.80;99.90;;;;;;5009481;28;20673;-62
2021/03/22 03:06:16;;;;;;;12.27;4.67;;;-0.80;99.90;;;;;;5009495;28;20704;-62
2021/03/22 03:08:44;;;;;;;9.83;3.27;;;-0.80;99.90;;;;;;5009627;28;20481;-62
2021/03/22 03:11:12;;;;;;;14.70;3.77;;;0.00;99.90;;;;;;5009233;28;20222;-62
2021/03/22 03:13:39;;;;;;;7.97;3.50;;;-0.90;99.90;;;;;;5010042;28;20528;-62
2021/03/22 03:16:07;;;;;;;9.70;4.20;;;-1.00;99.90;;;;;;5009734;28;20222;-62
2021/03/22 03:18:33;;;;;;;10.17;4.03;;;-1.00;99.90;;;;;;5010217;28;20211;-62
2021/03/22 03:21:00;;;;;;;10.77;3.87;;;-1.00;99.90;;;;;;5009978;28;20974;-62
2021/03/22 03:23:28;;;;;;;10.37;3.40;;;-1.00;99.90;;;;;;5011584;28;20637;-61
2021/03/22 03:25:56;;;;;;;8.07;3.50;;;-1.00;99.90;;;;;;5009118;28;20648;-62
2021/03/22 03:28:22;;;;;;;8.53;3.80;;;-1.00;99.90;;;;;;5009535;28;20214;-62
2021/03/22 03:30:49;;;;;;;11.13;3.47;;;-1.00;99.90;;;;;;5009209;28;20958;-62
2021/03/22 03:33:15;;;;;;;16.07;3.77;;;-1.00;99.90;;;;;;5009848;28;20561;-62
2021/03/22 03:35:44;;;;;;;13.13;3.90;;;-1.00;99.90;;;;;;5009102;28;20628;-61
2021/03/22 03:38:12;;;;;;;13.83;4.60;;;-1.00;99.90;;;;;;5008767;28;20217;-62
2021/03/22 03:40:41;;;;;;;13.67;4.13;;;-0.90;99.90;;;;;;5009094;28;20570;-62
2021/03/22 03:43:08;;;;;;;18.00;4.47;;;-1.00;99.90;;;;;;5009187;28;20607;-62
2021/03/22 03:45:40;;;;;;;10.83;4.17;;;-1.00;99.90;;;;;;5009003;28;20602;-62
2021/03/22 03:48:08;;;;;;;15.37;4.93;;;-0.90;99.90;;;;;;5009147;28;20386;-62
2021/03/22 03:50:35;;;;;;;13.30;4.50;;;-0.80;99.90;;;;;;5008734;28;20520;-62
2021/03/22 03:53:02;;;;;;;19.13;4.77;;;0.30;99.90;;;;;;5009347;28;20620;-62
2021/03/22 03:55:31;;;;;;;32.13;5.60;;;-0.30;99.90;;;;;;4986932;28;89667;-62
2021/03/22 03:57:57;;;;;;;190.60;20.60;;;-0.80;99.90;;;;;;4947614;28;117980;-61
2021/03/22 04:00:29;;;;;;;371.40;39.23;;;-0.80;99.90;;;;;;4917970;28;118649;-60
2021/03/22 04:02:56;;;;;;;175.50;20.97;;;-0.80;99.90;;;;;;4917245;28;118356;-60
2021/03/22 04:05:24;;;;;;;18.87;5.43;;;-0.80;99.90;;;;;;4916387;28;119466;-61
2021/03/22 04:07:50;;;;;;;30.47;6.67;;;0.30;99.90;;;;;;4924695;28;118707;-62
2021/03/22 04:10:17;;;;;;;59.57;8.80;;;-0.80;99.90;;;;;;4901691;28;118272;-61
2021/03/22 04:12:44;;;;;;;51.77;7.83;;;-0.70;99.90;;;;;;4977864;28;117682;-61
2021/03/22 04:15:14;;;;;;;106.30;12.70;;;-0.60;99.90;;;;;;4930045;28;117666;-62
2021/03/22 04:17:42;;;;;;;857.50;88.83;;;-0.80;99.90;;;;;;4984183;28;118074;-62
2021/03/22 04:20:10;;;;;;;524.80;49.47;;;-0.80;99.90;;;;;;4950247;28;118320;-59
2021/03/22 04:22:37;;;;;;;58.57;7.77;;;-0.80;99.90;;;;;;4962173;28;116990;-61
2021/03/22 04:25:04;;;;;;;18.33;4.30;;;-0.80;99.90;;;;;;4971364;28;117797;-62
2021/03/22 04:27:30;;;;;;;16.87;4.33;;;-0.90;99.90;;;;;;4930518;28;118042;-60
2021/03/22 04:29:57;;;;;;;14.13;4.50;;;-0.80;99.90;;;;;;4929668;28;118314;-60
2021/03/22 04:32:24;;;;;;;15.50;4.50;;;-1.10;99.90;;;;;;4930022;28;118040;-61
2021/03/22 04:34:51;;;;;;;11.07;4.63;;;-1.00;99.90;;;;;;4984201;28;119123;-61
2021/03/22 04:37:17;;;;;;;14.20;4.70;;;-1.10;99.90;;;;;;5002611;28;116700;-62
2021/03/22 04:39:44;;;;;;;306.13;27.57;;;-1.20;99.90;;;;;;5008671;28;20675;-62
2021/03/22 04:42:11;;;;;;;392.40;36.13;;;-1.00;99.90;;;;;;5007999;28;20456;-62
2021/03/22 04:44:37;;;;;;;15.80;3.93;;;-1.10;99.90;;;;;;5007856;28;20472;-62
2021/03/22 04:47:04;;;;;;;13.93;4.20;;;-1.20;99.90;;;;;;5008434;28;20253;-61
2021/03/22 04:49:31;;;;;;;18.07;4.50;;;-1.10;99.90;;;;;;5007476;28;20523;-62
2021/03/22 04:51:58;;;;;;;122.63;13.87;;;-1.30;99.90;;;;;;5007594;28;20847;-62
2021/03/22 04:54:24;;;;;;;1022.83;89.73;;;-1.30;99.90;;;;;;4997356;28;117606;-61
2021/03/22 04:56:50;;;;;;;15.50;4.53;;;-1.30;99.90;;;;;;4920790;28;118205;-61
2021/03/22 04:59:17;;;;;;;16.33;5.03;;;-0.40;99.90;;;;;;4920416;28;117756;-60
2021/03/22 05:01:43;;;;;;;17.90;4.97;;;-1.20;99.90;;;;;;4916577;28;118262;-61
2021/03/22 05:04:10;;;;;;;21.97;6.40;;;-1.20;99.90;;;;;;4915030;28;119874;-61
2021/03/22 05:06:36;;;;;;;704.00;69.67;;;-1.30;99.90;;;;;;4915122;28;119318;-62
2021/03/22 05:09:04;;;;;;;1501.20;164.07;;;-1.30;99.90;;;;;;4916459;28;118133;-62
2021/03/22 05:11:30;;;;;;;30.57;12.60;;;-1.40;99.90;;;;;;4916988;28;118221;-61
2021/03/22 05:13:56;;;;;;;28.17;11.43;;;-1.30;99.90;;;;;;4916036;28;119237;-61
2021/03/22 05:16:23;;;;;;;32.13;13.93;;;-1.30;99.90;;;;;;4915273;28;119595;-61
2021/03/22 05:18:49;;;;;;;35.87;14.27;;;-1.30;99.90;;;;;;4916877;28;118373;-61
2021/03/22 05:21:15;;;;;;;352.60;41.63;;;-0.30;99.90;;;;;;4916912;28;118417;-60
2021/03/22 05:23:42;;;;;;;659.20;63.87;;;-1.20;99.90;;;;;;4915644;28;119774;-61
2021/03/22 05:26:11;;;;;;;23.87;8.20;;;-1.20;99.90;;;;;;4915002;28;119410;-61
2021/03/22 05:28:40;;;;;;;33.47;10.33;;;-1.20;99.90;;;;;;4916035;28;118244;-61
2021/03/22 05:31:08;;;;;;;28.43;9.50;;;-1.00;99.90;;;;;;4916711;28;118379;-61
2021/03/22 05:33:35;;;;;;;23.30;6.77;;;-0.80;99.90;;;;;;4916016;28;120681;-62
2021/03/22 05:36:01;;;;;;;1060.23;114.77;;;-0.90;99.90;;;;;;4915718;28;119256;-61
2021/03/22 05:38:29;;;;;;;322.00;31.97;;;-0.70;99.90;;;;;;4914320;28;118562;-60
2021/03/22 05:40:58;;;;;;;30.03;6.93;;;-0.80;99.90;;;;;;4913145;28;118353;-61
2021/03/22 05:43:48;;;;;;;19.33;5.77;;;-0.60;99.90;;;;;;4912665;28;118597;-61
2021/03/22 05:46:21;;;;;;;18.53;5.87;;;-0.40;99.90;;;;;;4912527;28;119481;-61
2021/03/22 05:49:02;;;;;;;24.27;5.23;;;-0.30;99.90;;;;;;4913444;28;118300;-61
2021/03/22 05:51:52;;;;;;;53.67;8.83;;;-0.20;99.90;;;;;;4913394;28;118615;-62
2021/03/22 05:54:47;;;;;;;18.30;6.60;;;-0.10;99.90;;;;;;4911621;28;119865;-61
2021/03/22 05:57:17;;;;;;;20.20;6.33;;;0.00;99.90;;;;;;4893471;28;120800;-62
2021/03/22 05:59:48;;;;;;;17.27;6.33;;;0.30;99.90;;;;;;4912977;28;118226;-62
2021/03/22 06:02:21;;;;;;;27.27;6.33;;;0.40;99.90;;;;;;4913788;28;118434;-61
2021/03/22 06:04:51;;;;;;;71.27;10.93;;;0.50;99.90;;;;;;4912021;28;119516;-61
2021/03/22 06:07:20;;;;;;;89.60;11.67;;;0.70;99.90;;;;;;4911909;28;119109;-62
2021/03/22 06:09:53;;;;;;;28.83;6.87;;;1.00;99.90;;;;;;4914772;28;118403;-63
2021/03/22 06:12:39;;;;;;;18.87;5.83;;;2.10;99.90;;;;;;4917038;28;118416;-62
2021/03/22 06:15:24;;;;;;;23.33;7.10;;;1.50;99.90;;;;;;4918507;28;118637;-62
2021/03/22 06:17:59;;;;;;;21.57;6.77;;;1.60;99.90;;;;;;4917244;28;119360;-62
2021/03/22 06:20:29;;;;;;;23.70;5.87;;;2.40;99.90;;;;;;4916558;28;118263;-62
2021/03/22 06:23:06;;;;;;;26.07;5.50;;;2.10;99.90;;;;;;4919186;28;118158;-63
2021/03/22 06:25:34;;;;;;;18.03;5.37;;;2.40;99.90;;;;;;4917855;28;119424;-63
2021/03/22 06:28:16;;;;;;;20.13;5.90;;;2.30;99.90;;;;;;4918128;28;118585;-63
2021/03/22 06:30:52;;;;;;;19.57;5.57;;;2.40;99.90;;;;;;4918888;28;118310;-62
2021/03/22 06:33:26;;;;;;;21.43;6.43;;;2.70;99.90;;;;;;4919701;28;118212;-62
2021/03/22 06:35:53;;;;;;;18.47;5.00;;;2.50;99.90;;;;;;4918040;28;119501;-61
2021/03/22 06:38:19;;;;;;;19.80;5.93;;;2.70;99.90;;;;;;4918684;28;119126;-61
2021/03/22 06:40:45;;;;;;;20.27;5.57;;;2.80;99.90;;;;;;4919693;28;118089;-61
2021/03/22 06:43:14;;;;;;;19.93;5.63;;;2.90;99.90;;;;;;4919762;28;118353;-62
2021/03/22 06:45:43;;;;;;;19.30;4.93;;;2.90;99.90;;;;;;4917609;28;118874;-62
2021/03/22 06:48:19;;;;;;;26.77;4.90;;;3.10;99.90;;;;;;4899855;28;119191;-61
2021/03/22 06:50:46;;;;;;;18.63;5.43;;;3.10;99.90;;;;;;4919205;28;118178;-60
2021/03/22 06:53:32;;;;;;;20.83;5.13;;;3.30;99.90;;;;;;4920092;28;118463;-62
2021/03/22 06:56:19;;;;;;;19.10;6.10;;;3.30;99.90;;;;;;4925656;28;119648;-63
2021/03/22 06:58:48;;;;;;;21.73;6.23;;;3.40;99.90;;;;;;4919573;28;118974;-63
2021/03/22 07:01:19;;;;;;;28.10;6.47;;;3.70;99.90;;;;;;4919679;28;118176;-61
2021/03/22 07:03:46;;;;;;;24.67;8.63;;;3.90;99.90;;;;;;4918633;28;118239;-61
2021/03/22 07:06:17;;;;;;;26.17;6.93;;;3.70;99.90;;;;;;4917209;28;119239;-61
2021/03/22 07:08:44;;;;;;;16.87;5.63;;;4.10;99.90;;;;;;4918205;28;118731;-62
2021/03/22 07:11:12;;;;;;;18.57;5.53;;;4.40;99.90;;;;;;4918220;28;118197;-61
2021/03/22 07:13:39;;;;;;;18.60;7.20;;;4.30;99.90;;;;;;4918850;28;118194;-59
2021/03/22 07:16:17;;;;;;;19.27;6.13;;;5.60;99.90;;;;;;4899333;28;119841;-61
2021/03/22 07:19:03;;;;;;;18.50;6.80;;;4.90;99.90;;;;;;4917920;28;118921;-63
2021/03/22 07:21:32;;;;;;;18.03;5.93;;;5.30;99.90;;;;;;4918506;28;118118;-61
2021/03/22 07:24:11;;;;;;;18.90;5.40;;;5.40;99.90;;;;;;4918164;28;118301;-61
2021/03/22 07:27:01;;;;;;;20.47;5.37;;;5.50;99.90;;;;;;4917532;28;120120;-62
2021/03/22 07:29:51;;;;;;;28.63;5.20;;;5.70;99.90;;;;;;4920139;28;117958;-63
2021/03/22 07:32:48;;;;;;;20.87;4.80;;;5.80;99.90;;;;;;4924774;28;117915;-61
2021/03/22 07:35:59;;;;;;;19.73;4.83;;;5.90;99.90;;;;;;4885635;28;118706;-61
2021/03/22 07:39:05;;;;;;;19.53;4.97;;;6.30;99.90;;;;;;4918587;28;119110;-61
2021/03/22 07:41:41;;;;;;;15.57;5.40;;;6.40;99.90;;;;;;4958580;28;118119;-61
2021/03/22 07:44:36;;;;;;;14.87;5.20;;;6.80;99.90;;;;;;4980000;28;108921;-62
2021/03/22 07:47:11;;;;;;;14.27;5.00;;;6.90;99.90;;;;;;5007703;28;41717;-63
2021/03/22 07:49:58;;;;;;;20.80;5.43;;;7.40;99.90;;;;;;5008905;28;20784;-63
2021/03/22 07:52:31;;;;;;;19.10;5.80;;;7.60;99.90;;;;;;5008431;28;20226;-63
2021/03/22 07:55:16;;;;;;;17.57;5.27;;;7.90;99.90;;;;;;5008546;28;20219;-62
2021/03/22 07:57:48;;;;;;;15.17;4.77;;;8.40;99.90;;;;;;5007872;28;21002;-62
2021/03/22 08:00:26;;;;;;;15.17;4.40;;;9.20;99.90;;;;;;4966582;28;118714;-61
2021/03/22 08:03:17;;;;;;;19.70;4.80;;;8.80;99.90;;;;;;4919235;28;119463;-63
2021/03/22 08:06:10;;;;;;;15.30;5.07;;;9.20;99.90;;;;;;4997616;28;20226;-61
2021/03/22 08:08:46;;;;;;;23.80;5.13;;;9.50;99.90;;;;;;4981667;28;20547;-61
2021/03/22 08:11:21;;;;;;;13.73;4.33;;;9.90;99.90;;;;;;5007815;28;20273;-60
2021/03/22 08:13:52;;;;;;;17.23;4.60;;;10.20;99.90;;;;;;5009119;28;20673;-61
2021/03/22 08:16:51;;;;;;;13.90;4.83;;;11.00;99.90;;;;;;5008691;28;20950;-59
2021/03/22 08:19:24;;;;;;;15.07;4.20;;;9.90;99.90;;;;;;5009204;28;20229;-61
2021/03/22 08:22:00;;;;;;;13.27;4.30;;;10.10;99.50;;;;;;5008370;28;20664;-61
2021/03/22 08:24:39;;;;;;;16.33;4.80;;;11.00;99.80;;;;;;5008349;28;20225;-61
2021/03/22 08:27:13;;;;;;;16.23;4.23;;;10.50;98.70;;;;;;5007863;28;22081;-62
2021/03/22 08:29:49;;;;;;;14.87;4.43;;;10.70;97.00;;;;;;5009104;28;20884;-61
2021/03/22 08:32:32;;;;;;;13.97;4.73;;;10.90;95.30;;;;;;5008118;28;20328;-62
2021/03/22 08:35:05;;;;;;;13.53;4.60;;;11.90;93.50;;;;;;5008727;28;20677;-62
2021/03/22 08:37:37;;;;;;;20.70;4.80;;;11.00;91.80;;;;;;5007423;28;20226;-62
2021/03/22 08:40:11;;;;;;;13.87;4.60;;;11.60;92.60;;;;;;5008833;28;20890;-62
2021/03/22 08:42:43;;;;;;;15.77;4.80;;;11.20;91.90;;;;;;5007754;28;20400;-61
2021/03/22 08:45:18;;;;;;;12.30;4.67;;;11.30;92.00;;;;;;5008709;28;20701;-61
2021/03/22 08:47:50;;;;;;;17.43;5.27;;;11.50;91.20;;;;;;5008423;28;20717;-61
2021/03/22 08:50:19;;;;;;;13.87;5.50;;;12.40;88.90;;;;;;5007893;28;20612;-61
2021/03/22 08:52:55;;;;;;;13.50;4.57;;;11.70;86.70;;;;;;5008437;28;20222;-61
2021/03/22 08:55:23;;;;;;;12.43;4.00;;;11.80;88.20;;;;;;5008303;28;20935;-62
2021/03/22 08:58:02;;;;;;;14.80;4.63;;;11.90;86.70;;;;;;5007918;28;20242;-61
2021/03/22 09:00:36;;;;;;;13.00;4.00;;;12.00;83.50;;;;;;5007738;28;20539;-62
2021/03/22 09:03:20;;;;;;;14.53;3.97;;;12.40;81.60;;;;;;5007852;28;20216;-60
2021/03/22 09:06:05;;;;;;;13.07;3.87;;;12.50;78.50;;;;;;5008010;28;20588;-62
2021/03/22 09:08:34;;;;;;;14.67;4.13;;;12.50;76.70;;;;;;5008807;28;20907;-63
2021/03/22 09:11:15;;;;;;;12.17;4.23;;;12.40;78.10;;;;;;5008074;28;20261;-62
2021/03/22 09:13:52;;;;;;;14.83;4.47;;;12.50;75.70;;;;;;5007923;28;20798;-63
2021/03/22 09:16:41;;;;;;;8.83;3.50;;;13.00;75.80;;;;;;5008364;28;20622;-63
2021/03/22 09:19:30;;;;;;;13.37;4.23;;;13.20;73.60;;;;;;5008175;28;20509;-62
2021/03/22 09:22:35;;;;;;;7.73;3.23;;;12.50;69.00;;;;;;5007379;28;20226;-62
2021/03/22 09:25:04;;;;;;;9.50;3.93;;;12.60;69.40;;;;;;5007799;28;20941;-63
2021/03/22 09:27:33;;;;;;;11.07;3.30;;;12.60;72.20;;;;;;5007632;28;20336;-61
2021/03/22 09:30:39;;;;;;;12.00;3.90;;;13.40;70.10;;;;;;5007667;28;20218;-62
2021/03/22 09:33:05;;;;;;;13.70;3.83;;;13.20;67.00;;;;;;5007770;28;20310;-62
2021/03/22 09:36:12;;;;;;;7.93;3.33;;;13.50;68.00;;;;;;5007636;28;20305;-63
2021/03/22 09:38:48;;;;;;;9.67;3.40;;;14.00;64.80;;;;;;5007427;28;20439;-63
2021/03/22 09:41:15;;;;;;;6.87;3.27;;;14.00;60.70;;;;;;5008584;28;20226;-63
2021/03/22 09:43:47;;;;;;;9.00;2.53;;;13.90;59.70;;;;;;5007786;28;20336;-63
2021/03/22 09:46:31;;;;;;;7.83;3.13;;;14.00;59.20;;;;;;5007599;28;20693;-63
2021/03/22 09:49:23;;;;;;;10.70;3.30;;;13.90;57.60;;;;;;5010793;28;20507;-63
2021/03/22 09:52:22;;;;;;;9.10;3.30;;;13.90;58.30;;;;;;5010148;28;20226;-63
2021/03/22 09:54:49;;;;;;;8.97;2.80;;;14.30;58.40;;;;;;5010716;28;20619;-63
2021/03/22 09:57:49;;;;;;;9.87;2.87;;;14.70;57.10;;;;;;4992100;28;20324;-62
2021/03/22 10:00:27;;;;;;;5.73;2.40;;;15.00;55.60;;;;;;5011105;28;20593;-63
2021/03/22 10:02:56;;;;;;;4.77;2.10;;;15.30;55.30;;;;;;4992446;28;20688;-62
2021/03/22 10:05:26;;;;;;;7.30;1.87;;;15.50;54.00;;;;;;5010913;28;20254;-62
2021/03/22 10:08:12;;;;;;;6.83;2.20;;;15.40;53.50;;;;;;5011118;28;20743;-63
2021/03/22 10:10:41;;;;;;;4.90;2.00;;;15.00;51.50;;;;;;5010573;28;20877;-62
2021/03/22 10:13:15;;;;;;;7.17;2.50;;;14.80;53.20;;;;;;5010242;28;20538;-63
2021/03/22 10:15:49;;;;;;;6.53;1.90;;;14.80;52.80;;;;;;5006592;28;20229;-63
2021/03/22 10:18:24;;;;;;;7.10;2.23;;;14.80;53.10;;;;;;5009822;28;20859;-63
2021/03/22 10:21:00;;;;;;;6.53;2.40;;;15.80;52.60;;;;;;5010701;28;20701;-63
2021/03/22 10:23:30;;;;;;;4.70;2.20;;;15.30;51.80;;;;;;5010440;28;20214;-62
2021/03/22 10:26:06;;;;;;;8.40;3.00;;;15.80;52.20;;;;;;5010026;28;20619;-63
2021/03/22 10:28:32;;;;;;;6.40;2.57;;;16.00;51.60;;;;;;5010111;28;20257;-62
2021/03/22 10:31:01;;;;;;;7.53;2.63;;;16.40;51.40;;;;;;5009928;28;20466;-63
2021/03/22 10:33:29;;;;;;;6.63;2.80;;;16.70;49.70;;;;;;5010291;28;20214;-62
2021/03/22 10:35:58;;;;;;;7.40;2.00;;;16.90;49.80;;;;;;5010506;28;20721;-63
2021/03/22 10:38:27;;;;;;;5.35;2.05;;;17.00;48.90;;;;;;5009930;28;20218;-63
2021/03/22 10:40:56;;;;;;;4.13;1.73;;;17.00;48.30;;;;;;5010391;28;20264;-63
2021/03/22 10:43:28;;;;;;;5.88;2.15;;;17.20;48.20;;;;;;5010412;28;20712;-63
2021/03/22 10:45:56;;;;;;;6.75;2.15;;;17.60;47.20;;;;;;5010590;28;20404;-64
2021/03/22 10:48:34;;;;;;;4.22;2.20;;;17.70;46.90;;;;;;5013882;28;20214;-63
2021/03/22 10:51:07;;;;;;;7.03;2.55;;;17.70;46.30;;;;;;5015067;28;20803;-63
2021/03/22 10:53:35;;;;;;;6.80;2.28;;;18.00;46.10;;;;;;5010179;28;20447;-63
2021/03/22 10:56:18;;;;;;;5.45;2.65;;;18.00;46.10;;;;;;5009890;28;20540;-63
2021/03/22 10:58:45;;;;;;;5.28;1.98;;;18.30;45.20;;;;;;4990470;28;20550;-63
2021/03/22 11:01:12;;;;;;;6.50;2.00;;;18.40;44.30;;;;;;5010010;28;20496;-62
2021/03/22 11:03:40;;;;;;;7.18;1.88;;;18.40;43.70;;;;;;5009751;28;20525;-62
2021/03/22 11:06:11;;;;;;;3.67;1.80;;;18.20;43.50;;;;;;5009753;28;21031;-62
2021/03/22 11:08:40;;;;;;;4.75;1.55;;;18.20;42.30;;;;;;5009701;28;20706;-62
2021/03/22 11:11:12;;;;;;;3.92;1.27;;;18.10;42.60;;;;;;4991155;28;20230;-62
2021/03/22 11:13:41;;;;;;;3.90;1.40;;;18.30;42.50;;;;;;5009625;28;20286;-62
2021/03/22 11:16:09;;;;;;;4.82;1.40;;;18.50;41.70;;;;;;5008931;28;20589;-62
2021/03/22 11:18:36;;;;;;;3.70;1.58;;;18.50;40.80;;;;;;5009711;28;20527;-63
2021/03/22 11:21:04;;;;;;;3.47;1.73;;;18.30;40.30;;;;;;5009488;28;20591;-62
2021/03/22 11:23:44;;;;;;;3.53;1.77;;;18.20;41.60;;;;;;5010425;28;20540;-62
2021/03/22 11:26:21;;;;;;;5.97;1.85;;;18.40;41.20;;;;;;5008621;28;20277;-63
2021/03/22 11:28:49;;;;;;;4.35;1.65;;;18.60;40.80;;;;;;5009244;28;20496;-62
2021/03/22 11:31:24;;;;;;;4.47;1.65;;;18.40;40.30;;;;;;5009380;28;20226;-62
2021/03/22 11:33:59;;;;;;;4.88;1.60;;;19.20;39.60;;;;;;5009796;28;20206;-62
2021/03/22 11:36:37;;;;;;;3.08;1.30;;;18.70;38.50;;;;;;5009371;28;20554;-62
2021/03/22 11:39:14;;;;;;;3.30;1.20;;;18.10;39.40;;;;;;5009428;28;20313;-63
2021/03/22 11:41:42;;;;;;;6.22;1.70;;;18.00;40.20;;;;;;5009014;28;20329;-62
2021/03/22 11:44:24;;;;;;;2.92;1.00;;;18.00;39.80;;;;;;5008792;28;20591;-62
2021/03/22 11:46:53;;;;;;;3.10;0.88;;;17.60;39.70;;;;;;5010734;28;20586;-62
2021/03/22 11:49:38;;;;;;;3.72;1.17;;;17.50;39.70;;;;;;5009128;28;20443;-63
2021/03/22 11:52:17;;;;;;;2.67;1.13;;;17.50;39.70;;;;;;5008056;28;20544;-63
2021/03/22 11:54:52;;;;;;;5.20;1.48;;;17.60;39.90;;;;;;5008989;28;20213;-63
2021/03/22 11:57:21;;;;;;;2.70;1.27;;;18.10;39.40;;;;;;5008598;28;20642;-62
2021/03/22 11:59:52;;;;;;;2.47;1.17;;;18.30;38.80;;;;;;5008792;28;20937;-62
2021/03/22 12:02:29;;;;;;;2.17;1.20;;;18.70;37.60;;;;;;5009010;28;20640;-63
2021/03/22 12:04:59;;;;;;;1.67;1.15;;;18.90;38.00;;;;;;5002267;28;20395;-62
2021/03/22 12:07:39;;;;;;;2.83;1.20;;;19.30;37.40;;;;;;5008400;28;20591;-62
2021/03/22 12:10:14;;;;;;;4.68;1.10;;;19.00;36.40;;;;;;5008169;28;20278;-62
2021/03/22 12:12:41;;;;;;;4.13;1.10;;;18.70;36.50;;;;;;5008371;28;20969;-63
2021/03/22 12:15:08;;;;;;;3.15;1.02;;;18.20;36.50;;;;;;5008901;28;20215;-62
2021/03/22 12:17:37;;;;;;;3.38;1.20;;;17.60;35.90;;;;;;5010051;28;20521;-62
2021/03/22 12:20:04;;;;;;;1.60;1.20;;;17.50;36.30;;;;;;5008581;28;20931;-62
2021/03/22 12:22:30;;;;;;;1.98;0.82;;;17.10;36.80;;;;;;5008763;28;20227;-62
2021/03/22 12:24:57;;;;;;;3.30;1.20;;;16.60;37.60;;;;;;5008600;28;20222;-62
2021/03/22 12:27:24;;;;;;;2.90;1.10;;;16.50;37.80;;;;;;5008622;28;20324;-62
2021/03/22 12:29:50;;;;;;;3.13;0.82;;;16.20;38.20;;;;;;5008623;28;20596;-62
2021/03/22 12:32:22;;;;;;;2.60;1.00;;;16.20;38.00;;;;;;5008122;28;20314;-63
2021/03/22 12:34:49;;;;;;;2.67;1.17;;;16.50;38.40;;;;;;5008512;28;20429;-63
2021/03/22 12:37:23;;;;;;;3.35;1.10;;;16.80;38.40;;;;;;5008419;28;20249;-65
2021/03/22 12:39:49;;;;;;;3.35;1.35;;;17.30;38.20;;;;;;5007942;28;20527;-62
2021/03/22 12:42:18;;;;;;;3.55;1.48;;;17.60;37.60;;;;;;5008141;28;20230;-61
2021/03/22 12:44:45;;;;;;;4.95;1.38;;;17.60;37.40;;;;;;5008246;28;20253;-62
2021/03/22 12:47:17;;;;;;;3.10;1.52;;;17.20;37.30;;;;;;5008428;28;20447;-62
2021/03/22 12:49:44;;;;;;;2.78;1.02;;;17.20;37.70;;;;;;5008117;28;20215;-62
2021/03/22 12:52:10;;;;;;;2.72;1.25;;;17.40;37.20;;;;;;5007876;28;20222;-62
2021/03/22 12:54:36;;;;;;;2.78;1.20;;;17.60;36.50;;;;;;5008284;28;20640;-62
2021/03/22 12:57:03;;;;;;;2.55;1.10;;;17.80;37.10;;;;;;5007231;28;20265;-62
2021/03/22 12:59:34;;;;;;;4.32;1.52;;;17.90;36.40;;;;;;4988503;28;20937;-62
2021/03/22 13:02:03;;;;;;;2.08;1.10;;;17.90;35.60;;;;;;4969635;28;20976;-62
2021/03/22 13:04:30;;;;;;;3.92;1.45;;;17.80;35.60;;;;;;5002108;28;20420;-62
2021/03/22 13:06:56;;;;;;;2.60;1.02;;;17.80;35.60;;;;;;5007857;28;20263;-62